sensor_id;sensor_type;location;lat;lon;timestamp;pressure;altitude;pressure_sealevel;temperature;humidity
2761;BME280;15420;48.636;9.798;2023-02-11T00:00:39;98620.78;;;-0.55;84.41
2761;BME280;15420;48.636;9.798;2023-02-11T00:03:05;98627.63;;;-0.54;84.25
2761;BME280;15420;48.636;9.798;2023-02-11T00:05:31;98631.66;;;-0.56;84.81
2761;BME280;15420;48.636;9.798;2023-02-11T00:08:00;98634.19;;;-0.56;84.80
2761;BME280;15420;48.636;9.798;2023-02-11T00:10:31;98638.78;;;-0.52;84.40
2761;BME280;15420;48.636;9.798;2023-02-11T00:12:57;98637.59;;;-0.56;84.39
2761;BME280;15420;48.636;9.798;2023-02-11T00:15:25;98632.25;;;-0.59;84.49
2761;BME280;15420;48.636;9.798;2023-02-11T00:17:53;98635.09;;;-0.64;84.56
2761;BME280;15420;48.636;9.798;2023-02-11T00:20:19;98629.16;;;-0.65;84.86
2761;BME280;15420;48.636;9.798;2023-02-11T00:22:46;98630.50;;;-0.69;84.36
2761;BME280;15420;48.636;9.798;2023-02-11T00:25:12;98625.44;;;-0.69;84.93
2761;BME280;15420;48.636;9.798;2023-02-11T00:27:40;98633.50;;;-0.73;85.07
2761;BME280;15420;48.636;9.798;2023-02-11T00:30:07;98633.50;;;-0.73;84.84
2761;BME280;15420;48.636;9.798;2023-02-11T00:32:33;98638.88;;;-0.78;85.04
2761;BME280;15420;48.636;9.798;2023-02-11T00:34:59;98635.44;;;-0.79;85.23
2761;BME280;15420;48.636;9.798;2023-02-11T00:37:27;98634.25;;;-0.82;85.15
2761;BME280;15420;48.636;9.798;2023-02-11T00:39:56;98625.03;;;-0.82;85.02
2761;BME280;15420;48.636;9.798;2023-02-11T00:42:25;98624.75;;;-0.85;85.58
2761;BME280;15420;48.636;9.798;2023-02-11T00:44:51;98628.78;;;-0.87;85.11
2761;BME280;15420;48.636;9.798;2023-02-11T00:47:17;98621.78;;;-0.89;85.01
2761;BME280;15420;48.636;9.798;2023-02-11T00:49:43;98625.94;;;-0.90;85.07
2761;BME280;15420;48.636;9.798;2023-02-11T00:52:11;98619.88;;;-0.92;85.49
2761;BME280;15420;48.636;9.798;2023-02-11T00:54:37;98617.94;;;-0.94;85.41
2761;BME280;15420;48.636;9.798;2023-02-11T00:57:04;98605.88;;;-0.97;84.95
2761;BME280;15420;48.636;9.798;2023-02-11T00:59:30;98614.22;;;-0.98;84.60
2761;BME280;15420;48.636;9.798;2023-02-11T01:01:56;98617.34;;;-1.01;84.87
2761;BME280;15420;48.636;9.798;2023-02-11T01:04:22;98607.72;;;-1.05;85.02
2761;BME280;15420;48.636;9.798;2023-02-11T01:06:51;98612.78;;;-1.05;85.60
2761;BME280;15420;48.636;9.798;2023-02-11T01:09:17;98605.06;;;-1.06;85.10
2761;BME280;15420;48.636;9.798;2023-02-11T01:11:48;98600.75;;;-1.07;85.46
2761;BME280;15420;48.636;9.798;2023-02-11T01:14:14;98593.63;;;-1.11;85.35
2761;BME280;15420;48.636;9.798;2023-02-11T01:16:40;98593.75;;;-1.10;85.52
2761;BME280;15420;48.636;9.798;2023-02-11T01:19:07;98593.47;;;-1.13;85.58
2761;BME280;15420;48.636;9.798;2023-02-11T01:21:35;98579.94;;;-1.13;85.62
2761;BME280;15420;48.636;9.798;2023-02-11T01:24:04;98580.81;;;-1.13;85.65
2761;BME280;15420;48.636;9.798;2023-02-11T01:26:30;98576.66;;;-1.12;85.89
2761;BME280;15420;48.636;9.798;2023-02-11T01:28:59;98573.25;;;-1.13;85.88
2761;BME280;15420;48.636;9.798;2023-02-11T01:31:26;98565.50;;;-1.14;85.91
2761;BME280;15420;48.636;9.798;2023-02-11T01:33:52;98562.22;;;-1.13;85.80
2761;BME280;15420;48.636;9.798;2023-02-11T01:36:18;98552.13;;;-1.13;86.30
2761;BME280;15420;48.636;9.798;2023-02-11T01:38:44;98546.78;;;-1.16;86.11
2761;BME280;15420;48.636;9.798;2023-02-11T01:41:14;98548.28;;;-1.18;85.72
2761;BME280;15420;48.636;9.798;2023-02-11T01:43:44;98544.25;;;-1.16;85.67
2761;BME280;15420;48.636;9.798;2023-02-11T01:49:01;98529.81;;;-1.17;85.97
2761;BME280;15420;48.636;9.798;2023-02-11T01:51:33;98528.78;;;-1.19;86.02
2761;BME280;15420;48.636;9.798;2023-02-11T01:54:03;98520.31;;;-1.20;86.03
2761;BME280;15420;48.636;9.798;2023-02-11T01:56:50;98523.59;;;-1.21;86.05
2761;BME280;15420;48.636;9.798;2023-02-11T02:02:53;98533.09;;;-1.18;86.35
2761;BME280;15420;48.636;9.798;2023-02-11T02:05:34;98532.97;;;-1.20;86.47
2761;BME280;15420;48.636;9.798;2023-02-11T02:08:29;98538.16;;;-1.18;86.19
2761;BME280;15420;48.636;9.798;2023-02-11T02:10:57;98539.50;;;-1.22;86.21
2761;BME280;15420;48.636;9.798;2023-02-11T02:13:29;98541.00;;;-1.24;86.42
2761;BME280;15420;48.636;9.798;2023-02-11T02:16:02;98545.31;;;-1.23;86.48
2761;BME280;15420;48.636;9.798;2023-02-11T02:24:34;98531.78;;;-1.23;86.16
2761;BME280;15420;48.636;9.798;2023-02-11T02:27:18;98530.00;;;-1.24;86.02
2761;BME280;15420;48.636;9.798;2023-02-11T02:35:26;98517.81;;;-1.28;86.77
2761;BME280;15420;48.636;9.798;2023-02-11T02:40:51;98515.13;;;-1.30;86.69
2761;BME280;15420;48.636;9.798;2023-02-11T02:43:19;98512.19;;;-1.35;87.12
2761;BME280;15420;48.636;9.798;2023-02-11T02:45:46;98506.38;;;-1.34;86.93
2761;BME280;15420;48.636;9.798;2023-02-11T02:48:29;98519.91;;;-1.33;86.93
2761;BME280;15420;48.636;9.798;2023-02-11T03:02:50;98504.31;;;-1.38;88.05
2761;BME280;15420;48.636;9.798;2023-02-11T03:10:43;98500.16;;;-1.37;87.76
2761;BME280;15420;48.636;9.798;2023-02-11T03:13:11;98492.72;;;-1.36;87.99
2761;BME280;15420;48.636;9.798;2023-02-11T03:15:47;98482.75;;;-1.34;87.97
2761;BME280;15420;48.636;9.798;2023-02-11T03:18:17;98487.78;;;-1.34;87.80
2761;BME280;15420;48.636;9.798;2023-02-11T03:20:48;98485.41;;;-1.33;88.06
2761;BME280;15420;48.636;9.798;2023-02-11T03:23:31;98484.53;;;-1.33;87.86
2761;BME280;15420;48.636;9.798;2023-02-11T03:26:14;98485.41;;;-1.33;87.77
2761;BME280;15420;48.636;9.798;2023-02-11T03:28:43;98491.34;;;-1.32;87.89
2761;BME280;15420;48.636;9.798;2023-02-11T03:31:29;98488.97;;;-1.30;87.94
2761;BME280;15420;48.636;9.798;2023-02-11T03:34:00;98489.72;;;-1.32;88.34
2761;BME280;15420;48.636;9.798;2023-02-11T03:36:39;98495.06;;;-1.28;88.19
2761;BME280;15420;48.636;9.798;2023-02-11T03:39:19;98477.22;;;-1.30;88.43
2761;BME280;15420;48.636;9.798;2023-02-11T03:41:50;98479.91;;;-1.28;88.71
2761;BME280;15420;48.636;9.798;2023-02-11T03:44:20;98483.31;;;-1.28;88.74
2761;BME280;15420;48.636;9.798;2023-02-11T03:46:50;98483.47;;;-1.26;88.82
2761;BME280;15420;48.636;9.798;2023-02-11T03:49:21;98483.00;;;-1.22;88.92
2761;BME280;15420;48.636;9.798;2023-02-11T03:51:52;98487.59;;;-1.18;88.91
2761;BME280;15420;48.636;9.798;2023-02-11T03:54:27;98487.00;;;-1.16;88.58
2761;BME280;15420;48.636;9.798;2023-02-11T03:56:56;98500.81;;;-1.12;88.82
2761;BME280;15420;48.636;9.798;2023-02-11T03:59:23;98503.63;;;-1.09;88.82
2761;BME280;15420;48.636;9.798;2023-02-11T04:01:49;98512.53;;;-1.04;89.04
2761;BME280;15420;48.636;9.798;2023-02-11T04:04:15;98507.72;;;-1.01;89.10
2761;BME280;15420;48.636;9.798;2023-02-11T04:06:41;98505.31;;;-1.00;88.94
2761;BME280;15420;48.636;9.798;2023-02-11T04:09:09;98519.16;;;-0.96;88.87
2761;BME280;15420;48.636;9.798;2023-02-11T04:11:37;98524.63;;;-0.91;88.36
2761;BME280;15420;48.636;9.798;2023-02-11T04:14:03;98521.50;;;-0.89;88.75
2761;BME280;15420;48.636;9.798;2023-02-11T04:16:32;98525.06;;;-0.87;88.82
2761;BME280;15420;48.636;9.798;2023-02-11T04:19:00;98527.00;;;-0.84;89.27
2761;BME280;15420;48.636;9.798;2023-02-11T04:21:27;98528.91;;;-0.82;89.18
2761;BME280;15420;48.636;9.798;2023-02-11T04:23:53;98529.19;;;-0.79;88.89
2761;BME280;15420;48.636;9.798;2023-02-11T04:26:19;98527.56;;;-0.78;88.83
2761;BME280;15420;48.636;9.798;2023-02-11T04:28:45;98521.75;;;-0.77;88.82
2761;BME280;15420;48.636;9.798;2023-02-11T04:31:11;98521.88;;;-0.76;88.92
2761;BME280;15420;48.636;9.798;2023-02-11T04:33:37;98528.88;;;-0.73;88.93
2761;BME280;15420;48.636;9.798;2023-02-11T04:36:03;98523.81;;;-0.73;88.79
2761;BME280;15420;48.636;9.798;2023-02-11T04:38:30;98511.16;;;-0.73;88.87
2761;BME280;15420;48.636;9.798;2023-02-11T04:40:57;98505.34;;;-0.72;88.30
2761;BME280;15420;48.636;9.798;2023-02-11T04:43:25;98512.94;;;-0.72;88.89
2761;BME280;15420;48.636;9.798;2023-02-11T04:45:56;98505.47;;;-0.71;89.43
2761;BME280;15420;48.636;9.798;2023-02-11T04:48:25;98513.22;;;-0.69;89.09
2761;BME280;15420;48.636;9.798;2023-02-11T04:50:53;98509.06;;;-0.69;89.12
2761;BME280;15420;48.636;9.798;2023-02-11T04:53:19;98512.59;;;-0.67;89.19
2761;BME280;15420;48.636;9.798;2023-02-11T04:55:48;98517.94;;;-0.63;89.11
2761;BME280;15420;48.636;9.798;2023-02-11T04:58:16;98515.56;;;-0.62;88.68
2761;BME280;15420;48.636;9.798;2023-02-11T05:00:42;98524.19;;;-0.60;89.12
2761;BME280;15420;48.636;9.798;2023-02-11T05:03:11;98517.63;;;-0.58;89.22
2761;BME280;15420;48.636;9.798;2023-02-11T05:05:41;98513.59;;;-0.56;89.42
2761;BME280;15420;48.636;9.798;2023-02-11T05:08:10;98502.56;;;-0.56;89.51
2761;BME280;15420;48.636;9.798;2023-02-11T05:10:37;98494.38;;;-0.54;89.81
2761;BME280;15420;48.636;9.798;2023-02-11T05:13:05;98487.06;;;-0.51;89.02
2761;BME280;15420;48.636;9.798;2023-02-11T05:15:31;98485.56;;;-0.49;89.49
2761;BME280;15420;48.636;9.798;2023-02-11T05:17:57;98486.59;;;-0.47;89.57
2761;BME280;15420;48.636;9.798;2023-02-11T05:20:24;98474.06;;;-0.45;89.80
2761;BME280;15420;48.636;9.798;2023-02-11T05:22:52;98468.38;;;-0.43;89.83
2761;BME280;15420;48.636;9.798;2023-02-11T05:25:21;98477.91;;;-0.40;90.04
2761;BME280;15420;48.636;9.798;2023-02-11T05:27:47;98460.31;;;-0.39;89.13
2761;BME280;15420;48.636;9.798;2023-02-11T05:30:13;98459.72;;;-0.36;89.72
2761;BME280;15420;48.636;9.798;2023-02-11T05:32:44;98453.13;;;-0.34;89.50
2761;BME280;15420;48.636;9.798;2023-02-11T05:35:12;98455.94;;;-0.31;89.99
2761;BME280;15420;48.636;9.798;2023-02-11T05:37:41;98440.00;;;-0.30;89.34
2761;BME280;15420;48.636;9.798;2023-02-11T05:40:08;98445.19;;;-0.28;89.14
2761;BME280;15420;48.636;9.798;2023-02-11T05:42:36;98447.88;;;-0.27;90.06
2761;BME280;15420;48.636;9.798;2023-02-11T05:45:03;98427.75;;;-0.25;89.45
2761;BME280;15420;48.636;9.798;2023-02-11T05:47:29;98432.94;;;-0.24;89.17
2761;BME280;15420;48.636;9.798;2023-02-11T05:49:58;98428.03;;;-0.22;89.55
2761;BME280;15420;48.636;9.798;2023-02-11T05:52:26;98430.56;;;-0.22;89.65
2761;BME280;15420;48.636;9.798;2023-02-11T05:54:52;98441.84;;;-0.19;90.12
2761;BME280;15420;48.636;9.798;2023-02-11T05:57:18;98432.47;;;-0.20;90.01
2761;BME280;15420;48.636;9.798;2023-02-11T05:59:44;98435.28;;;-0.17;90.14
2761;BME280;15420;48.636;9.798;2023-02-11T06:02:13;98433.78;;;-0.15;89.75
2761;BME280;15420;48.636;9.798;2023-02-11T06:04:39;98433.91;;;-0.13;89.55
2761;BME280;15420;48.636;9.798;2023-02-11T06:07:08;98428.09;;;-0.12;89.17
2761;BME280;15420;48.636;9.798;2023-02-11T06:09:35;98425.69;;;-0.11;90.22
2761;BME280;15420;48.636;9.798;2023-02-11T06:12:01;98421.66;;;-0.09;90.05
2761;BME280;15420;48.636;9.798;2023-02-11T06:14:27;98429.38;;;-0.07;90.02
2761;BME280;15420;48.636;9.798;2023-02-11T06:16:53;98424.44;;;-0.06;89.92
2761;BME280;15420;48.636;9.798;2023-02-11T06:19:20;98420.53;;;-0.02;89.62
2761;BME280;15420;48.636;9.798;2023-02-11T06:21:46;98430.03;;;0.00;90.26
2761;BME280;15420;48.636;9.798;2023-02-11T06:24:12;98436.88;;;0.02;89.88
2761;BME280;15420;48.636;9.798;2023-02-11T06:26:41;98444.72;;;0.05;90.05
2761;BME280;15420;48.636;9.798;2023-02-11T06:29:12;98438.91;;;0.06;89.46
2761;BME280;15420;48.636;9.798;2023-02-11T06:31:39;98447.53;;;0.08;89.47
2761;BME280;15420;48.636;9.798;2023-02-11T06:34:06;98437.00;;;0.03;89.98
2761;BME280;15420;48.636;9.798;2023-02-11T06:36:36;98444.50;;;0.12;89.37
2761;BME280;15420;48.636;9.798;2023-02-11T06:39:03;98456.56;;;0.14;89.85
2761;BME280;15420;48.636;9.798;2023-02-11T06:41:29;98466.84;;;0.16;89.46
2761;BME280;15420;48.636;9.798;2023-02-11T06:43:59;98461.00;;;0.17;90.26
2761;BME280;15420;48.636;9.798;2023-02-11T06:46:28;98462.03;;;0.19;90.23
2761;BME280;15420;48.636;9.798;2023-02-11T06:48:54;98458.00;;;0.21;90.19
2761;BME280;15420;48.636;9.798;2023-02-11T06:51:20;98458.00;;;0.21;89.58
2761;BME280;15420;48.636;9.798;2023-02-11T06:53:49;98465.84;;;0.24;90.21
2761;BME280;15420;48.636;9.798;2023-02-11T06:56:18;98471.06;;;0.25;89.47
2761;BME280;15420;48.636;9.798;2023-02-11T06:58:45;98465.38;;;0.28;89.62
2761;BME280;15420;48.636;9.798;2023-02-11T07:01:16;98458.78;;;0.30;89.93
2761;BME280;15420;48.636;9.798;2023-02-11T07:03:43;98457.16;;;0.30;90.32
2761;BME280;15420;48.636;9.798;2023-02-11T07:06:29;98469.34;;;0.35;89.63
2761;BME280;15420;48.636;9.798;2023-02-11T07:08:55;98462.63;;;0.35;89.60
2761;BME280;15420;48.636;9.798;2023-02-11T07:11:25;98478.09;;;0.38;89.79
2761;BME280;15420;48.636;9.798;2023-02-11T07:13:53;98477.47;;;0.41;90.29
2761;BME280;15420;48.636;9.798;2023-02-11T07:16:22;98475.19;;;0.44;89.73
2761;BME280;15420;48.636;9.798;2023-02-11T07:18:49;98472.81;;;0.45;90.46
2761;BME280;15420;48.636;9.798;2023-02-11T07:21:18;98470.53;;;0.48;89.83
2761;BME280;15420;48.636;9.798;2023-02-11T07:23:45;98468.13;;;0.50;89.84
2761;BME280;15420;48.636;9.798;2023-02-11T07:26:16;98460.78;;;0.53;90.01
2761;BME280;15420;48.636;9.798;2023-02-11T07:28:43;98456.75;;;0.55;91.11
2761;BME280;15420;48.636;9.798;2023-02-11T07:31:16;98449.53;;;0.59;90.36
2761;BME280;15420;48.636;9.798;2023-02-11T07:33:45;98445.34;;;0.60;91.26
2761;BME280;15420;48.636;9.798;2023-02-11T07:36:13;98446.50;;;0.63;90.43
2761;BME280;15420;48.636;9.798;2023-02-11T07:38:43;98442.31;;;0.64;90.54
2761;BME280;15420;48.636;9.798;2023-02-11T07:41:12;98450.06;;;0.65;90.26
2761;BME280;15420;48.636;9.798;2023-02-11T07:43:39;98442.44;;;0.65;90.32
2761;BME280;15420;48.636;9.798;2023-02-11T07:46:07;98446.75;;;0.67;90.23
2761;BME280;15420;48.636;9.798;2023-02-11T07:48:37;98448.53;;;0.68;90.72
2761;BME280;15420;48.636;9.798;2023-02-11T07:51:14;98457.16;;;0.70;91.19
2761;BME280;15420;48.636;9.798;2023-02-11T07:53:40;98462.09;;;0.68;90.70
2761;BME280;15420;48.636;9.798;2023-02-11T07:56:10;98471.50;;;0.69;91.32
2761;BME280;15420;48.636;9.798;2023-02-11T07:58:38;98474.78;;;0.68;91.36
2761;BME280;15420;48.636;9.798;2023-02-11T08:01:11;98482.66;;;0.71;91.14
2761;BME280;15420;48.636;9.798;2023-02-11T08:03:38;98487.09;;;0.74;91.95
2761;BME280;15420;48.636;9.798;2023-02-11T08:06:16;98482.44;;;0.78;91.64
2761;BME280;15420;48.636;9.798;2023-02-11T08:08:43;98475.84;;;0.80;92.48
2761;BME280;15420;48.636;9.798;2023-02-11T08:11:26;98473.97;;;0.88;91.72
2761;BME280;15420;48.636;9.798;2023-02-11T08:13:56;98469.28;;;0.92;92.02
2761;BME280;15420;48.636;9.798;2023-02-11T08:16:23;98466.38;;;0.98;92.24
2761;BME280;15420;48.636;9.798;2023-02-11T08:18:55;98460.03;;;1.03;92.52
2761;BME280;15420;48.636;9.798;2023-02-11T08:21:22;98463.81;;;1.08;92.13
2761;BME280;15420;48.636;9.798;2023-02-11T08:23:49;98468.53;;;1.14;92.67
2761;BME280;15420;48.636;9.798;2023-02-11T08:26:27;98467.25;;;1.19;91.99
2761;BME280;15420;48.636;9.798;2023-02-11T08:28:55;98467.78;;;1.25;92.79
2761;BME280;15420;48.636;9.798;2023-02-11T08:31:26;98468.16;;;1.29;91.79
2761;BME280;15420;48.636;9.798;2023-02-11T08:33:55;98458.38;;;1.34;92.71
2761;BME280;15420;48.636;9.798;2023-02-11T08:36:32;98452.03;;;1.39;91.84
2761;BME280;15420;48.636;9.798;2023-02-11T08:39:04;98461.56;;;1.42;92.15
2761;BME280;15420;48.636;9.798;2023-02-11T08:41:32;98471.22;;;1.46;91.54
2761;BME280;15420;48.636;9.798;2023-02-11T08:43:58;98471.59;;;1.50;91.54
2761;BME280;15420;48.636;9.798;2023-02-11T08:46:25;98473.63;;;1.54;91.66
2761;BME280;15420;48.636;9.798;2023-02-11T08:48:54;98468.16;;;1.60;92.32
2761;BME280;15420;48.636;9.798;2023-02-11T08:51:26;98479.72;;;1.67;92.03
2761;BME280;15420;48.636;9.798;2023-02-11T08:53:54;98474.88;;;1.70;91.84
2761;BME280;15420;48.636;9.798;2023-02-11T08:56:26;98472.59;;;1.73;92.05
2761;BME280;15420;48.636;9.798;2023-02-11T08:58:53;98474.63;;;1.77;92.12
2761;BME280;15420;48.636;9.798;2023-02-11T09:01:25;98468.28;;;1.82;92.29
2761;BME280;15420;48.636;9.798;2023-02-11T09:03:52;98464.31;;;1.85;91.93
2761;BME280;15420;48.636;9.798;2023-02-11T09:06:22;98465.59;;;1.90;92.33
2761;BME280;15420;48.636;9.798;2023-02-11T09:08:50;98458.34;;;1.95;91.84
2761;BME280;15420;48.636;9.798;2023-02-11T09:11:18;98461.00;;;1.96;91.75
2761;BME280;15420;48.636;9.798;2023-02-11T09:13:45;98453.63;;;2.00;91.69
2761;BME280;15420;48.636;9.798;2023-02-11T09:16:29;98443.06;;;2.05;92.09
2761;BME280;15420;48.636;9.798;2023-02-11T09:18:57;98433.03;;;2.07;91.97
2761;BME280;15420;48.636;9.798;2023-02-11T09:21:23;98431.69;;;2.12;91.79
2761;BME280;15420;48.636;9.798;2023-02-11T09:23:52;98440.84;;;2.20;91.73
2761;BME280;15420;48.636;9.798;2023-02-11T09:26:19;98438.66;;;2.24;91.65
2761;BME280;15420;48.636;9.798;2023-02-11T09:28:46;98435.72;;;2.30;91.66
2761;BME280;15420;48.636;9.798;2023-02-11T09:31:15;98436.97;;;2.35;91.38
2761;BME280;15420;48.636;9.798;2023-02-11T09:33:43;98439.88;;;2.40;91.29
2761;BME280;15420;48.636;9.798;2023-02-11T09:36:14;98438.34;;;2.42;91.25
2761;BME280;15420;48.636;9.798;2023-02-11T09:38:40;98431.84;;;2.45;91.35
2761;BME280;15420;48.636;9.798;2023-02-11T09:44:02;98432.78;;;2.57;91.12
2761;BME280;15420;48.636;9.798;2023-02-11T09:46:35;98434.81;;;2.61;91.29
2761;BME280;15420;48.636;9.798;2023-02-11T09:49:04;98441.91;;;2.66;91.11
2761;BME280;15420;48.636;9.798;2023-02-11T09:51:54;98435.75;;;2.74;91.07
2761;BME280;15420;48.636;9.798;2023-02-11T09:57:17;98427.13;;;2.72;91.00
2761;BME280;15420;48.636;9.798;2023-02-11T09:59:45;98424.69;;;2.73;90.96
2761;BME280;15420;48.636;9.798;2023-02-11T10:02:25;98430.16;;;2.78;90.79
2761;BME280;15420;48.636;9.798;2023-02-11T10:05:18;98441.22;;;2.78;90.72
2761;BME280;15420;48.636;9.798;2023-02-11T10:08:05;98447.44;;;2.82;90.64
2761;BME280;15420;48.636;9.798;2023-02-11T10:16:14;98449.03;;;2.91;90.29
2761;BME280;15420;48.636;9.798;2023-02-11T10:24:09;98463.47;;;3.03;90.63
2761;BME280;15420;48.636;9.798;2023-02-11T10:26:39;98453.88;;;3.22;89.90
2761;BME280;15420;48.636;9.798;2023-02-11T10:31:59;98444.34;;;3.19;89.96
2761;BME280;15420;48.636;9.798;2023-02-11T10:34:26;98444.72;;;3.24;89.71
2761;BME280;15420;48.636;9.798;2023-02-11T10:36:53;98445.16;;;3.30;89.81
2761;BME280;15420;48.636;9.798;2023-02-11T10:39:21;98449.19;;;3.38;89.16
2761;BME280;15420;48.636;9.798;2023-02-11T10:41:53;98447.88;;;3.43;88.94
2761;BME280;15420;48.636;9.798;2023-02-11T10:44:37;98451.00;;;3.51;88.79
2761;BME280;15420;48.636;9.798;2023-02-11T10:47:18;98450.44;;;3.55;88.82
2761;BME280;15420;48.636;9.798;2023-02-11T10:49:46;98440.50;;;3.58;88.27
2761;BME280;15420;48.636;9.798;2023-02-11T10:52:27;98447.16;;;3.68;88.46
2761;BME280;15420;48.636;9.798;2023-02-11T10:57:25;98437.53;;;3.75;87.93
2761;BME280;15420;48.636;9.798;2023-02-11T10:59:57;98445.84;;;3.84;88.13
2761;BME280;15420;48.636;9.798;2023-02-11T11:02:29;98436.88;;;3.89;87.89
2761;BME280;15420;48.636;9.798;2023-02-11T11:05:24;98435.78;;;3.98;87.23
2761;BME280;15420;48.636;9.798;2023-02-11T11:08:03;98426.81;;;4.03;87.47
2761;BME280;15420;48.636;9.798;2023-02-11T11:10:47;98423.81;;;4.08;86.63
2761;BME280;15420;48.636;9.798;2023-02-11T11:16:14;98420.56;;;4.22;86.42
2761;BME280;15420;48.636;9.798;2023-02-11T11:18:45;98406.34;;;4.26;86.38
2761;BME280;15420;48.636;9.798;2023-02-11T11:21:22;98401.13;;;4.36;85.55
2761;BME280;15420;48.636;9.798;2023-02-11T11:23:53;98396.47;;;4.42;85.51
2761;BME280;15420;48.636;9.798;2023-02-11T11:26:26;98392.91;;;4.52;84.96
2761;BME280;15420;48.636;9.798;2023-02-11T11:29:19;98393.66;;;4.63;85.36
2761;BME280;15420;48.636;9.798;2023-02-11T11:31:57;98387.88;;;4.65;85.60
2761;BME280;15420;48.636;9.798;2023-02-11T11:34:36;98390.38;;;4.77;84.45
2761;BME280;15420;48.636;9.798;2023-02-11T11:37:18;98381.59;;;4.85;84.78
2761;BME280;15420;48.636;9.798;2023-02-11T11:42:36;98382.75;;;5.02;84.96
2761;BME280;15420;48.636;9.798;2023-02-11T11:47:51;98392.44;;;5.19;84.21
2761;BME280;15420;48.636;9.798;2023-02-11T11:58:33;98387.09;;;5.54;83.33
2761;BME280;15420;48.636;9.798;2023-02-11T12:07:08;98392.88;;;5.89;81.77
2761;BME280;15420;48.636;9.798;2023-02-11T12:12:25;98384.44;;;6.04;81.74
2761;BME280;15420;48.636;9.798;2023-02-11T12:20:54;98376.78;;;6.45;80.60
2761;BME280;15420;48.636;9.798;2023-02-11T12:29:42;98392.38;;;6.76;78.84
2761;BME280;15420;48.636;9.798;2023-02-11T12:32:01;98396.81;;;6.78;79.01
2761;BME280;15420;48.636;9.798;2023-02-11T12:34:54;98392.53;;;6.92;79.00
2761;BME280;15420;48.636;9.798;2023-02-11T12:40:44;98376.06;;;7.16;78.58
2761;BME280;15420;48.636;9.798;2023-02-11T12:43:37;98371.81;;;7.32;77.54
2761;BME280;15420;48.636;9.798;2023-02-11T12:46:10;98368.28;;;7.44;78.16
2761;BME280;15420;48.636;9.798;2023-02-11T12:54:46;98368.75;;;7.81;76.19
2761;BME280;15420;48.636;9.798;2023-02-11T12:57:25;98358.66;;;7.84;75.35
2761;BME280;15420;48.636;9.798;2023-02-11T13:08:34;98351.53;;;8.10;74.06
2761;BME280;15420;48.636;9.798;2023-02-11T13:11:04;98355.25;;;8.15;73.84
2761;BME280;15420;48.636;9.798;2023-02-11T13:13:41;98358.41;;;8.26;73.54
2761;BME280;15420;48.636;9.798;2023-02-11T13:16:42;98362.47;;;8.37;73.71
2761;BME280;15420;48.636;9.798;2023-02-11T13:24:39;98352.47;;;8.58;72.33
2761;BME280;15420;48.636;9.798;2023-02-11T13:35:38;98342.28;;;8.75;71.20
2761;BME280;15420;48.636;9.798;2023-02-11T13:40:43;98343.25;;;8.77;72.34
2761;BME280;15420;48.636;9.798;2023-02-11T13:43:22;98341.00;;;8.83;71.29
2761;BME280;15420;48.636;9.798;2023-02-11T13:45:50;98336.59;;;8.81;72.02
2761;BME280;15420;48.636;9.798;2023-02-11T13:48:22;98335.94;;;8.85;71.06
2761;BME280;15420;48.636;9.798;2023-02-11T13:50:58;98327.53;;;8.88;70.59
2761;BME280;15420;48.636;9.798;2023-02-11T13:53:25;98320.63;;;8.87;71.33
2761;BME280;15420;48.636;9.798;2023-02-11T13:56:10;98328.88;;;8.97;70.87
2761;BME280;15420;48.636;9.798;2023-02-11T13:58:46;98324.78;;;9.01;69.88
2761;BME280;15420;48.636;9.798;2023-02-11T14:04:19;98324.69;;;9.15;69.86
2761;BME280;15420;48.636;9.798;2023-02-11T14:07:27;98325.97;;;9.24;69.23
2761;BME280;15420;48.636;9.798;2023-02-11T14:26:45;98338.50;;;9.17;68.41
2761;BME280;15420;48.636;9.798;2023-02-11T14:36:03;98343.56;;;9.16;67.90
2761;BME280;15420;48.636;9.798;2023-02-11T14:38:23;98344.88;;;9.08;68.25
2761;BME280;15420;48.636;9.798;2023-02-11T14:41:15;98339.00;;;9.10;68.05
2761;BME280;15420;48.636;9.798;2023-02-11T14:44:00;98345.75;;;9.08;67.59
2761;BME280;15420;48.636;9.798;2023-02-11T14:46:32;98335.88;;;9.00;67.26
2761;BME280;15420;48.636;9.798;2023-02-11T14:49:02;98333.22;;;8.98;68.08
2761;BME280;15420;48.636;9.798;2023-02-11T14:51:34;98331.38;;;8.96;67.62
2761;BME280;15420;48.636;9.798;2023-02-11T14:54:24;98325.34;;;8.95;66.84
2761;BME280;15420;48.636;9.798;2023-02-11T14:57:17;98327.75;;;8.92;66.98
2761;BME280;15420;48.636;9.798;2023-02-11T15:00:02;98340.44;;;8.89;67.11
2761;BME280;15420;48.636;9.798;2023-02-11T15:02:34;98334.09;;;8.82;67.83
2761;BME280;15420;48.636;9.798;2023-02-11T15:05:19;98344.47;;;8.84;67.49
2761;BME280;15420;48.636;9.798;2023-02-11T15:07:53;98342.38;;;8.77;68.26
2761;BME280;15420;48.636;9.798;2023-02-11T15:10:36;98333.88;;;8.78;68.77
2761;BME280;15420;48.636;9.798;2023-02-11T15:13:07;98335.22;;;8.71;69.19
2761;BME280;15420;48.636;9.798;2023-02-11T15:15:34;98336.03;;;8.70;69.81
2761;BME280;15420;48.636;9.798;2023-02-11T15:18:04;98323.75;;;8.65;69.15
2761;BME280;15420;48.636;9.798;2023-02-11T15:20:32;98329.50;;;8.61;69.59
2761;BME280;15420;48.636;9.798;2023-02-11T15:23:04;98340.50;;;8.58;68.94
2761;BME280;15420;48.636;9.798;2023-02-11T15:25:35;98335.13;;;8.53;70.61
2761;BME280;15420;48.636;9.798;2023-02-11T15:28:22;98333.44;;;8.54;69.67
2761;BME280;15420;48.636;9.798;2023-02-11T15:31:03;98340.09;;;8.50;71.46
2761;BME280;15420;48.636;9.798;2023-02-11T15:33:33;98343.13;;;8.43;70.36
2761;BME280;15420;48.636;9.798;2023-02-11T15:36:03;98357.50;;;8.40;70.68
2761;BME280;15420;48.636;9.798;2023-02-11T15:38:31;98353.78;;;8.35;71.17
2761;BME280;15420;48.636;9.798;2023-02-11T15:40:58;98354.34;;;8.29;71.86
2761;BME280;15420;48.636;9.798;2023-02-11T15:43:47;98357.63;;;8.27;71.09
2761;BME280;15420;48.636;9.798;2023-02-11T15:46:19;98354.53;;;8.17;71.27
2761;BME280;15420;48.636;9.798;2023-02-11T15:48:52;98358.63;;;8.14;71.87
2761;BME280;15420;48.636;9.798;2023-02-11T15:51:31;98363.31;;;8.06;71.94
2761;BME280;15420;48.636;9.798;2023-02-11T15:54:02;98367.31;;;8.01;71.60
2761;BME280;15420;48.636;9.798;2023-02-11T15:56:40;98372.34;;;8.00;72.39
2761;BME280;15420;48.636;9.798;2023-02-11T15:59:27;98362.72;;;7.96;71.46
2761;BME280;15420;48.636;9.798;2023-02-11T16:02:03;98371.75;;;7.89;72.56
2761;BME280;15420;48.636;9.798;2023-02-11T16:04:30;98367.16;;;7.83;71.78
2761;BME280;15420;48.636;9.798;2023-02-11T16:06:56;98371.22;;;7.80;72.39
2761;BME280;15420;48.636;9.798;2023-02-11T16:09:30;98367.06;;;7.97;70.99
2761;BME280;15420;48.636;9.798;2023-02-11T16:11:59;98377.94;;;7.78;71.57
2761;BME280;15420;48.636;9.798;2023-02-11T16:17:26;98378.66;;;7.61;72.40
2761;BME280;15420;48.636;9.798;2023-02-11T16:19:53;98388.38;;;7.51;73.15